Lafayette, Louisiana
Current Conditions -  °F | °C
As of 4:53 PM on Monday 20 Oct 2014 (Local Time) from KLFT Reporting Station
Clear Clear  
Wind Chill: 79°   Ceiling: Unl
Heat Index: 80°   Visibility: 10mi
Dew Point: 56°   Wind: 8mph
Humidity: 45%   Direction: 30°NNE
Pressure: 29.99"   Gusts: NA
Location:  30.22°N, 92.02°W
Report Text: KLFT 202153Z 03007KT 10SM CLR 26/13 A2999 RMK AO2 SLP155 T02610133
Loading
Personal Weather Stations






























Interactive Weather Map
Tropical Storm Tracking
New forecast layout! Learn more

10-Day Weather Forecast

Advertisements
Track Severe Weather on mobile